sensor_id;sensor_type;location;lat;lon;timestamp;P1;durP1;ratioP1;P2;durP2;ratioP2
21681;SDS011;11002;48.256;10.084;2023-05-18T00:01:23;10.18;;;5.13;;
21681;SDS011;11002;48.256;10.084;2023-05-18T00:03:50;7.90;;;5.20;;
21681;SDS011;11002;48.256;10.084;2023-05-18T00:06:19;9.05;;;5.43;;
21681;SDS011;11002;48.256;10.084;2023-05-18T00:08:46;8.02;;;5.00;;
21681;SDS011;11002;48.256;10.084;2023-05-18T00:11:14;7.85;;;5.38;;
21681;SDS011;11002;48.256;10.084;2023-05-18T00:13:41;10.52;;;5.32;;
21681;SDS011;11002;48.256;10.084;2023-05-18T00:16:08;9.13;;;4.82;;
21681;SDS011;11002;48.256;10.084;2023-05-18T00:18:37;6.38;;;4.82;;
21681;SDS011;11002;48.256;10.084;2023-05-18T00:21:05;9.43;;;4.85;;
21681;SDS011;11002;48.256;10.084;2023-05-18T00:23:33;8.20;;;5.07;;
21681;SDS011;11002;48.256;10.084;2023-05-18T00:26:03;9.50;;;5.63;;
21681;SDS011;11002;48.256;10.084;2023-05-18T00:28:31;10.80;;;5.60;;
21681;SDS011;11002;48.256;10.084;2023-05-18T00:30:58;8.68;;;5.13;;
21681;SDS011;11002;48.256;10.084;2023-05-18T00:33:28;8.25;;;5.57;;
21681;SDS011;11002;48.256;10.084;2023-05-18T00:35:57;8.88;;;5.95;;
21681;SDS011;11002;48.256;10.084;2023-05-18T00:38:27;7.22;;;5.28;;
21681;SDS011;11002;48.256;10.084;2023-05-18T00:40:54;11.80;;;5.30;;
21681;SDS011;11002;48.256;10.084;2023-05-18T00:43:22;9.52;;;4.85;;
21681;SDS011;11002;48.256;10.084;2023-05-18T00:45:49;7.55;;;5.70;;
21681;SDS011;11002;48.256;10.084;2023-05-18T00:48:17;11.02;;;5.72;;
21681;SDS011;11002;48.256;10.084;2023-05-18T00:50:44;14.88;;;6.03;;
21681;SDS011;11002;48.256;10.084;2023-05-18T00:53:13;11.07;;;5.38;;
21681;SDS011;11002;48.256;10.084;2023-05-18T00:55:41;14.48;;;6.10;;
21681;SDS011;11002;48.256;10.084;2023-05-18T00:58:08;9.73;;;6.22;;
21681;SDS011;11002;48.256;10.084;2023-05-18T01:00:36;9.82;;;6.97;;
21681;SDS011;11002;48.256;10.084;2023-05-18T01:03:04;8.70;;;6.40;;
21681;SDS011;11002;48.256;10.084;2023-05-18T01:05:34;10.13;;;6.53;;
21681;SDS011;11002;48.256;10.084;2023-05-18T01:08:01;9.52;;;5.97;;
21681;SDS011;11002;48.256;10.084;2023-05-18T01:10:31;10.65;;;6.30;;
21681;SDS011;11002;48.256;10.084;2023-05-18T01:13:04;12.77;;;6.78;;
21681;SDS011;11002;48.256;10.084;2023-05-18T01:18:07;11.55;;;6.50;;
21681;SDS011;11002;48.256;10.084;2023-05-18T01:20:40;13.30;;;6.85;;
21681;SDS011;11002;48.256;10.084;2023-05-18T01:26:13;11.18;;;6.40;;
21681;SDS011;11002;48.256;10.084;2023-05-18T01:28:43;11.38;;;6.60;;
21681;SDS011;11002;48.256;10.084;2023-05-18T01:31:12;12.55;;;6.80;;
21681;SDS011;11002;48.256;10.084;2023-05-18T01:33:40;12.88;;;6.78;;
21681;SDS011;11002;48.256;10.084;2023-05-18T01:36:08;9.45;;;6.22;;
21681;SDS011;11002;48.256;10.084;2023-05-18T01:38:36;16.55;;;6.53;;
21681;SDS011;11002;48.256;10.084;2023-05-18T01:41:07;10.10;;;6.55;;
21681;SDS011;11002;48.256;10.084;2023-05-18T01:43:43;11.18;;;6.45;;
21681;SDS011;11002;48.256;10.084;2023-05-18T01:46:16;9.77;;;7.10;;
21681;SDS011;11002;48.256;10.084;2023-05-18T01:48:52;12.85;;;7.22;;
21681;SDS011;11002;48.256;10.084;2023-05-18T01:51:22;12.30;;;7.15;;
21681;SDS011;11002;48.256;10.084;2023-05-18T01:53:58;11.93;;;6.47;;
21681;SDS011;11002;48.256;10.084;2023-05-18T01:56:30;11.02;;;6.40;;
21681;SDS011;11002;48.256;10.084;2023-05-18T01:58:58;12.57;;;6.80;;
21681;SDS011;11002;48.256;10.084;2023-05-18T02:01:27;10.07;;;6.60;;
21681;SDS011;11002;48.256;10.084;2023-05-18T02:03:54;10.30;;;5.68;;
21681;SDS011;11002;48.256;10.084;2023-05-18T02:06:22;9.80;;;6.05;;
21681;SDS011;11002;48.256;10.084;2023-05-18T02:08:49;12.70;;;6.25;;
21681;SDS011;11002;48.256;10.084;2023-05-18T02:11:17;11.65;;;6.32;;
21681;SDS011;11002;48.256;10.084;2023-05-18T02:13:45;8.35;;;5.47;;
21681;SDS011;11002;48.256;10.084;2023-05-18T02:16:13;12.63;;;5.93;;
21681;SDS011;11002;48.256;10.084;2023-05-18T02:18:40;6.97;;;5.05;;
21681;SDS011;11002;48.256;10.084;2023-05-18T02:21:09;14.77;;;5.82;;
21681;SDS011;11002;48.256;10.084;2023-05-18T02:23:38;14.75;;;6.72;;
21681;SDS011;11002;48.256;10.084;2023-05-18T02:26:06;12.38;;;5.88;;
21681;SDS011;11002;48.256;10.084;2023-05-18T02:28:33;10.57;;;6.13;;
21681;SDS011;11002;48.256;10.084;2023-05-18T02:31:06;13.32;;;6.05;;
21681;SDS011;11002;48.256;10.084;2023-05-18T02:33:34;10.98;;;5.50;;
21681;SDS011;11002;48.256;10.084;2023-05-18T02:36:08;7.97;;;5.15;;
21681;SDS011;11002;48.256;10.084;2023-05-18T02:38:36;6.95;;;5.00;;
21681;SDS011;11002;48.256;10.084;2023-05-18T02:41:05;12.10;;;5.65;;
21681;SDS011;11002;48.256;10.084;2023-05-18T02:43:33;13.63;;;5.30;;
21681;SDS011;11002;48.256;10.084;2023-05-18T02:46:00;8.65;;;5.50;;
21681;SDS011;11002;48.256;10.084;2023-05-18T02:48:29;14.07;;;6.47;;
21681;SDS011;11002;48.256;10.084;2023-05-18T02:50:56;9.10;;;5.80;;
21681;SDS011;11002;48.256;10.084;2023-05-18T02:53:24;10.38;;;5.47;;
21681;SDS011;11002;48.256;10.084;2023-05-18T02:55:57;7.70;;;5.05;;
21681;SDS011;11002;48.256;10.084;2023-05-18T02:58:34;8.52;;;5.93;;
21681;SDS011;11002;48.256;10.084;2023-05-18T03:01:07;10.52;;;5.28;;
21681;SDS011;11002;48.256;10.084;2023-05-18T03:03:42;14.07;;;5.78;;
21681;SDS011;11002;48.256;10.084;2023-05-18T03:06:11;6.97;;;5.53;;
21681;SDS011;11002;48.256;10.084;2023-05-18T03:08:41;10.20;;;6.25;;
21681;SDS011;11002;48.256;10.084;2023-05-18T03:11:10;9.35;;;5.38;;
21681;SDS011;11002;48.256;10.084;2023-05-18T03:13:37;15.02;;;5.38;;
21681;SDS011;11002;48.256;10.084;2023-05-18T03:16:05;11.07;;;6.25;;
21681;SDS011;11002;48.256;10.084;2023-05-18T03:18:33;9.95;;;6.07;;
21681;SDS011;11002;48.256;10.084;2023-05-18T03:21:02;11.82;;;5.40;;
21681;SDS011;11002;48.256;10.084;2023-05-18T03:23:29;12.05;;;5.30;;
21681;SDS011;11002;48.256;10.084;2023-05-18T03:25:57;10.85;;;4.93;;
21681;SDS011;11002;48.256;10.084;2023-05-18T03:28:27;11.60;;;5.40;;
21681;SDS011;11002;48.256;10.084;2023-05-18T03:30:55;8.93;;;5.25;;
21681;SDS011;11002;48.256;10.084;2023-05-18T03:33:23;7.35;;;4.80;;
21681;SDS011;11002;48.256;10.084;2023-05-18T03:35:51;9.30;;;5.13;;
21681;SDS011;11002;48.256;10.084;2023-05-18T03:38:21;7.47;;;4.80;;
21681;SDS011;11002;48.256;10.084;2023-05-18T03:40:55;8.07;;;4.72;;
21681;SDS011;11002;48.256;10.084;2023-05-18T03:43:23;11.10;;;5.05;;
21681;SDS011;11002;48.256;10.084;2023-05-18T03:45:51;12.48;;;5.22;;
21681;SDS011;11002;48.256;10.084;2023-05-18T03:48:18;8.15;;;5.03;;
21681;SDS011;11002;48.256;10.084;2023-05-18T03:50:46;11.55;;;5.20;;
21681;SDS011;11002;48.256;10.084;2023-05-18T03:53:14;11.25;;;4.90;;
21681;SDS011;11002;48.256;10.084;2023-05-18T03:55:44;10.07;;;4.63;;
21681;SDS011;11002;48.256;10.084;2023-05-18T03:58:13;8.18;;;5.10;;
21681;SDS011;11002;48.256;10.084;2023-05-18T04:00:41;9.30;;;5.38;;
21681;SDS011;11002;48.256;10.084;2023-05-18T04:03:08;9.60;;;4.70;;
21681;SDS011;11002;48.256;10.084;2023-05-18T04:05:37;11.82;;;6.15;;
21681;SDS011;11002;48.256;10.084;2023-05-18T04:08:05;10.48;;;5.07;;
21681;SDS011;11002;48.256;10.084;2023-05-18T04:10:33;8.57;;;5.40;;
21681;SDS011;11002;48.256;10.084;2023-05-18T04:13:01;12.02;;;4.95;;
21681;SDS011;11002;48.256;10.084;2023-05-18T04:15:29;14.15;;;5.07;;
21681;SDS011;11002;48.256;10.084;2023-05-18T04:17:58;14.27;;;4.68;;
21681;SDS011;11002;48.256;10.084;2023-05-18T04:20:26;11.38;;;4.47;;
21681;SDS011;11002;48.256;10.084;2023-05-18T04:22:54;7.32;;;4.63;;
21681;SDS011;11002;48.256;10.084;2023-05-18T04:25:22;8.68;;;4.32;;
21681;SDS011;11002;48.256;10.084;2023-05-18T04:27:52;11.98;;;4.32;;
21681;SDS011;11002;48.256;10.084;2023-05-18T04:30:22;9.35;;;4.28;;
21681;SDS011;11002;48.256;10.084;2023-05-18T04:32:54;10.07;;;4.35;;
21681;SDS011;11002;48.256;10.084;2023-05-18T04:35:23;8.85;;;4.22;;
21681;SDS011;11002;48.256;10.084;2023-05-18T04:37:51;7.88;;;4.25;;
21681;SDS011;11002;48.256;10.084;2023-05-18T04:40:19;5.28;;;3.83;;
21681;SDS011;11002;48.256;10.084;2023-05-18T04:42:48;7.40;;;3.60;;
21681;SDS011;11002;48.256;10.084;2023-05-18T04:45:24;9.48;;;5.05;;
21681;SDS011;11002;48.256;10.084;2023-05-18T04:47:54;7.15;;;4.05;;
21681;SDS011;11002;48.256;10.084;2023-05-18T04:50:22;13.05;;;4.05;;
21681;SDS011;11002;48.256;10.084;2023-05-18T04:52:50;8.48;;;4.45;;
21681;SDS011;11002;48.256;10.084;2023-05-18T04:55:20;10.73;;;5.00;;
21681;SDS011;11002;48.256;10.084;2023-05-18T04:57:51;9.63;;;3.70;;
21681;SDS011;11002;48.256;10.084;2023-05-18T05:00:20;9.63;;;4.50;;
21681;SDS011;11002;48.256;10.084;2023-05-18T05:02:50;7.63;;;3.45;;
21681;SDS011;11002;48.256;10.084;2023-05-18T05:05:17;7.28;;;3.63;;
21681;SDS011;11002;48.256;10.084;2023-05-18T05:07:45;6.57;;;2.92;;
21681;SDS011;11002;48.256;10.084;2023-05-18T05:10:14;6.50;;;3.08;;
21681;SDS011;11002;48.256;10.084;2023-05-18T05:12:42;6.35;;;3.40;;
21681;SDS011;11002;48.256;10.084;2023-05-18T05:15:10;8.50;;;3.50;;
21681;SDS011;11002;48.256;10.084;2023-05-18T05:17:38;6.63;;;2.88;;
21681;SDS011;11002;48.256;10.084;2023-05-18T05:20:09;6.95;;;2.80;;
21681;SDS011;11002;48.256;10.084;2023-05-18T05:22:36;8.10;;;3.17;;
21681;SDS011;11002;48.256;10.084;2023-05-18T05:25:07;7.57;;;3.00;;
21681;SDS011;11002;48.256;10.084;2023-05-18T05:27:35;11.63;;;2.88;;
21681;SDS011;11002;48.256;10.084;2023-05-18T05:30:03;8.63;;;3.05;;
21681;SDS011;11002;48.256;10.084;2023-05-18T05:32:34;11.77;;;2.85;;
21681;SDS011;11002;48.256;10.084;2023-05-18T05:35:01;7.57;;;3.00;;
21681;SDS011;11002;48.256;10.084;2023-05-18T05:37:31;7.38;;;2.53;;
21681;SDS011;11002;48.256;10.084;2023-05-18T05:40:00;6.35;;;3.22;;
21681;SDS011;11002;48.256;10.084;2023-05-18T05:42:34;9.10;;;3.03;;
21681;SDS011;11002;48.256;10.084;2023-05-18T05:45:02;7.50;;;2.55;;
21681;SDS011;11002;48.256;10.084;2023-05-18T05:47:34;9.23;;;3.42;;
21681;SDS011;11002;48.256;10.084;2023-05-18T05:50:02;11.65;;;3.60;;
21681;SDS011;11002;48.256;10.084;2023-05-18T05:52:33;6.32;;;3.33;;
21681;SDS011;11002;48.256;10.084;2023-05-18T05:55:01;9.57;;;3.63;;
21681;SDS011;11002;48.256;10.084;2023-05-18T05:57:30;7.80;;;3.38;;
21681;SDS011;11002;48.256;10.084;2023-05-18T05:59:59;9.48;;;3.42;;
21681;SDS011;11002;48.256;10.084;2023-05-18T06:02:28;9.38;;;3.63;;
21681;SDS011;11002;48.256;10.084;2023-05-18T06:04:56;8.68;;;3.78;;
21681;SDS011;11002;48.256;10.084;2023-05-18T06:07:23;10.50;;;4.13;;
21681;SDS011;11002;48.256;10.084;2023-05-18T06:09:52;7.15;;;3.40;;
21681;SDS011;11002;48.256;10.084;2023-05-18T06:12:19;8.15;;;3.92;;
21681;SDS011;11002;48.256;10.084;2023-05-18T06:14:47;8.73;;;4.20;;
21681;SDS011;11002;48.256;10.084;2023-05-18T06:17:17;5.10;;;3.40;;
21681;SDS011;11002;48.256;10.084;2023-05-18T06:19:44;10.63;;;3.80;;
21681;SDS011;11002;48.256;10.084;2023-05-18T06:22:12;6.70;;;2.97;;
21681;SDS011;11002;48.256;10.084;2023-05-18T06:24:49;6.85;;;3.90;;
21681;SDS011;11002;48.256;10.084;2023-05-18T06:27:34;8.00;;;3.70;;
21681;SDS011;11002;48.256;10.084;2023-05-18T06:30:30;6.95;;;3.28;;
21681;SDS011;11002;48.256;10.084;2023-05-18T06:33:09;10.52;;;3.50;;
21681;SDS011;11002;48.256;10.084;2023-05-18T06:35:38;8.90;;;3.40;;
21681;SDS011;11002;48.256;10.084;2023-05-18T06:38:06;8.18;;;3.58;;
21681;SDS011;11002;48.256;10.084;2023-05-18T06:40:33;7.97;;;3.75;;
21681;SDS011;11002;48.256;10.084;2023-05-18T06:43:03;8.38;;;3.60;;
21681;SDS011;11002;48.256;10.084;2023-05-18T06:45:40;7.68;;;3.22;;
21681;SDS011;11002;48.256;10.084;2023-05-18T06:48:13;9.13;;;3.30;;
21681;SDS011;11002;48.256;10.084;2023-05-18T06:50:40;7.00;;;3.38;;
21681;SDS011;11002;48.256;10.084;2023-05-18T06:53:08;6.47;;;3.20;;
21681;SDS011;11002;48.256;10.084;2023-05-18T06:55:35;5.25;;;3.45;;
21681;SDS011;11002;48.256;10.084;2023-05-18T06:58:04;9.25;;;2.95;;
21681;SDS011;11002;48.256;10.084;2023-05-18T07:00:32;6.13;;;2.80;;
21681;SDS011;11002;48.256;10.084;2023-05-18T07:03:01;5.90;;;3.00;;
21681;SDS011;11002;48.256;10.084;2023-05-18T07:05:28;9.82;;;3.22;;
21681;SDS011;11002;48.256;10.084;2023-05-18T07:07:56;7.45;;;3.25;;
21681;SDS011;11002;48.256;10.084;2023-05-18T07:10:23;9.38;;;2.92;;
21681;SDS011;11002;48.256;10.084;2023-05-18T07:12:53;9.98;;;3.58;;
21681;SDS011;11002;48.256;10.084;2023-05-18T07:15:22;6.40;;;3.00;;
21681;SDS011;11002;48.256;10.084;2023-05-18T07:17:50;7.85;;;2.88;;
21681;SDS011;11002;48.256;10.084;2023-05-18T07:20:18;7.95;;;3.80;;
21681;SDS011;11002;48.256;10.084;2023-05-18T07:22:45;8.82;;;3.53;;
21681;SDS011;11002;48.256;10.084;2023-05-18T07:25:13;6.20;;;3.38;;
21681;SDS011;11002;48.256;10.084;2023-05-18T07:27:40;7.38;;;3.55;;
21681;SDS011;11002;48.256;10.084;2023-05-18T07:30:08;8.27;;;3.90;;
21681;SDS011;11002;48.256;10.084;2023-05-18T07:32:37;7.38;;;3.33;;
21681;SDS011;11002;48.256;10.084;2023-05-18T07:35:04;7.47;;;3.35;;
21681;SDS011;11002;48.256;10.084;2023-05-18T07:37:32;7.72;;;3.70;;
21681;SDS011;11002;48.256;10.084;2023-05-18T07:40:00;7.55;;;3.40;;
21681;SDS011;11002;48.256;10.084;2023-05-18T07:42:28;8.68;;;3.45;;
21681;SDS011;11002;48.256;10.084;2023-05-18T07:44:58;11.88;;;3.30;;
21681;SDS011;11002;48.256;10.084;2023-05-18T07:47:25;7.78;;;3.53;;
21681;SDS011;11002;48.256;10.084;2023-05-18T07:49:54;6.63;;;2.88;;
21681;SDS011;11002;48.256;10.084;2023-05-18T07:52:21;9.20;;;3.63;;
21681;SDS011;11002;48.256;10.084;2023-05-18T07:54:48;5.90;;;2.97;;
21681;SDS011;11002;48.256;10.084;2023-05-18T07:57:16;7.40;;;2.83;;
21681;SDS011;11002;48.256;10.084;2023-05-18T07:59:44;8.57;;;2.90;;
21681;SDS011;11002;48.256;10.084;2023-05-18T08:02:11;8.35;;;2.88;;
21681;SDS011;11002;48.256;10.084;2023-05-18T08:04:40;7.15;;;3.25;;
21681;SDS011;11002;48.256;10.084;2023-05-18T08:07:09;10.45;;;3.40;;
21681;SDS011;11002;48.256;10.084;2023-05-18T08:09:37;8.65;;;3.10;;
21681;SDS011;11002;48.256;10.084;2023-05-18T08:12:04;5.63;;;3.10;;
21681;SDS011;11002;48.256;10.084;2023-05-18T08:14:33;9.32;;;3.05;;
21681;SDS011;11002;48.256;10.084;2023-05-18T08:17:01;7.68;;;2.83;;
21681;SDS011;11002;48.256;10.084;2023-05-18T08:19:29;7.38;;;2.92;;
21681;SDS011;11002;48.256;10.084;2023-05-18T08:21:56;7.75;;;3.00;;
21681;SDS011;11002;48.256;10.084;2023-05-18T08:24:25;6.97;;;2.75;;
21681;SDS011;11002;48.256;10.084;2023-05-18T08:26:52;4.60;;;2.63;;
21681;SDS011;11002;48.256;10.084;2023-05-18T08:29:19;11.02;;;2.80;;
21681;SDS011;11002;48.256;10.084;2023-05-18T08:31:47;5.97;;;2.80;;
21681;SDS011;11002;48.256;10.084;2023-05-18T08:34:14;7.03;;;2.70;;
21681;SDS011;11002;48.256;10.084;2023-05-18T08:36:41;6.10;;;2.85;;
21681;SDS011;11002;48.256;10.084;2023-05-18T08:39:10;6.63;;;2.88;;
21681;SDS011;11002;48.256;10.084;2023-05-18T08:41:39;6.28;;;2.90;;
21681;SDS011;11002;48.256;10.084;2023-05-18T08:44:15;6.72;;;2.55;;
21681;SDS011;11002;48.256;10.084;2023-05-18T08:46:48;4.55;;;2.15;;
21681;SDS011;11002;48.256;10.084;2023-05-18T08:49:16;5.55;;;2.78;;
21681;SDS011;11002;48.256;10.084;2023-05-18T08:51:46;5.93;;;2.10;;
21681;SDS011;11002;48.256;10.084;2023-05-18T08:54:21;8.27;;;2.50;;
21681;SDS011;11002;48.256;10.084;2023-05-18T08:56:50;4.32;;;2.67;;
21681;SDS011;11002;48.256;10.084;2023-05-18T08:59:21;6.00;;;2.55;;
21681;SDS011;11002;48.256;10.084;2023-05-18T09:01:50;5.75;;;2.72;;
21681;SDS011;11002;48.256;10.084;2023-05-18T09:04:19;7.75;;;2.50;;
21681;SDS011;11002;48.256;10.084;2023-05-18T09:06:47;9.93;;;2.92;;
21681;SDS011;11002;48.256;10.084;2023-05-18T09:09:16;4.20;;;2.53;;
21681;SDS011;11002;48.256;10.084;2023-05-18T09:11:44;6.05;;;2.40;;
21681;SDS011;11002;48.256;10.084;2023-05-18T09:14:14;5.55;;;2.33;;
21681;SDS011;11002;48.256;10.084;2023-05-18T09:16:41;6.15;;;2.92;;
21681;SDS011;11002;48.256;10.084;2023-05-18T09:19:09;7.90;;;2.60;;
21681;SDS011;11002;48.256;10.084;2023-05-18T09:21:36;8.35;;;2.65;;
21681;SDS011;11002;48.256;10.084;2023-05-18T09:24:04;8.48;;;2.83;;
21681;SDS011;11002;48.256;10.084;2023-05-18T09:26:32;5.82;;;2.38;;
21681;SDS011;11002;48.256;10.084;2023-05-18T09:28:59;6.00;;;2.35;;
21681;SDS011;11002;48.256;10.084;2023-05-18T09:31:28;5.28;;;2.42;;
21681;SDS011;11002;48.256;10.084;2023-05-18T09:33:57;7.55;;;4.28;;
21681;SDS011;11002;48.256;10.084;2023-05-18T09:36:25;4.10;;;2.38;;
21681;SDS011;11002;48.256;10.084;2023-05-18T09:38:54;8.57;;;2.65;;
21681;SDS011;11002;48.256;10.084;2023-05-18T09:41:24;6.53;;;2.65;;
21681;SDS011;11002;48.256;10.084;2023-05-18T09:43:53;10.05;;;2.65;;
21681;SDS011;11002;48.256;10.084;2023-05-18T09:46:20;9.70;;;2.55;;
21681;SDS011;11002;48.256;10.084;2023-05-18T09:48:49;9.23;;;2.75;;
21681;SDS011;11002;48.256;10.084;2023-05-18T09:51:18;7.97;;;2.67;;
21681;SDS011;11002;48.256;10.084;2023-05-18T09:53:52;6.47;;;2.60;;
21681;SDS011;11002;48.256;10.084;2023-05-18T09:56:21;6.10;;;2.60;;
21681;SDS011;11002;48.256;10.084;2023-05-18T09:58:49;13.85;;;2.70;;
21681;SDS011;11002;48.256;10.084;2023-05-18T10:01:16;12.25;;;2.55;;
21681;SDS011;11002;48.256;10.084;2023-05-18T10:03:44;6.35;;;2.60;;
21681;SDS011;11002;48.256;10.084;2023-05-18T10:06:14;5.90;;;2.28;;
21681;SDS011;11002;48.256;10.084;2023-05-18T10:08:45;6.55;;;2.28;;
21681;SDS011;11002;48.256;10.084;2023-05-18T10:11:15;5.57;;;2.30;;
21681;SDS011;11002;48.256;10.084;2023-05-18T10:13:44;5.97;;;2.10;;
21681;SDS011;11002;48.256;10.084;2023-05-18T10:16:11;6.20;;;2.05;;
21681;SDS011;11002;48.256;10.084;2023-05-18T10:18:38;14.02;;;2.88;;
21681;SDS011;11002;48.256;10.084;2023-05-18T10:21:07;7.80;;;2.13;;
21681;SDS011;11002;48.256;10.084;2023-05-18T10:23:38;6.60;;;1.95;;
21681;SDS011;11002;48.256;10.084;2023-05-18T10:26:06;7.57;;;1.85;;
21681;SDS011;11002;48.256;10.084;2023-05-18T10:28:36;5.22;;;2.35;;
21681;SDS011;11002;48.256;10.084;2023-05-18T10:31:07;7.00;;;2.50;;
21681;SDS011;11002;48.256;10.084;2023-05-18T10:33:36;6.88;;;2.03;;
21681;SDS011;11002;48.256;10.084;2023-05-18T10:36:04;5.63;;;1.88;;
21681;SDS011;11002;48.256;10.084;2023-05-18T10:38:32;7.10;;;2.40;;
21681;SDS011;11002;48.256;10.084;2023-05-18T10:41:05;5.70;;;2.22;;
21681;SDS011;11002;48.256;10.084;2023-05-18T10:43:34;5.43;;;1.90;;
21681;SDS011;11002;48.256;10.084;2023-05-18T10:46:03;9.30;;;2.55;;
21681;SDS011;11002;48.256;10.084;2023-05-18T10:48:33;6.28;;;2.47;;
21681;SDS011;11002;48.256;10.084;2023-05-18T10:51:05;5.85;;;2.05;;
21681;SDS011;11002;48.256;10.084;2023-05-18T10:53:34;4.55;;;2.00;;
21681;SDS011;11002;48.256;10.084;2023-05-18T10:56:02;4.68;;;1.92;;
21681;SDS011;11002;48.256;10.084;2023-05-18T10:58:31;7.03;;;1.90;;
21681;SDS011;11002;48.256;10.084;2023-05-18T11:01:03;4.20;;;2.17;;
21681;SDS011;11002;48.256;10.084;2023-05-18T11:03:33;4.05;;;2.10;;
21681;SDS011;11002;48.256;10.084;2023-05-18T11:06:02;6.57;;;2.20;;
21681;SDS011;11002;48.256;10.084;2023-05-18T11:08:31;4.75;;;2.17;;
21681;SDS011;11002;48.256;10.084;2023-05-18T11:10:59;4.40;;;2.30;;
21681;SDS011;11002;48.256;10.084;2023-05-18T11:13:29;6.93;;;2.50;;
21681;SDS011;11002;48.256;10.084;2023-05-18T11:16:01;7.00;;;2.30;;
21681;SDS011;11002;48.256;10.084;2023-05-18T11:18:37;5.07;;;2.50;;
21681;SDS011;11002;48.256;10.084;2023-05-18T11:21:18;4.68;;;2.33;;
21681;SDS011;11002;48.256;10.084;2023-05-18T11:24:12;5.13;;;2.25;;
21681;SDS011;11002;48.256;10.084;2023-05-18T11:26:41;8.18;;;2.30;;
21681;SDS011;11002;48.256;10.084;2023-05-18T11:29:17;5.97;;;2.40;;
21681;SDS011;11002;48.256;10.084;2023-05-18T11:31:49;7.13;;;2.15;;
21681;SDS011;11002;48.256;10.084;2023-05-18T11:34:39;5.50;;;1.98;;
21681;SDS011;11002;48.256;10.084;2023-05-18T11:37:11;6.38;;;2.45;;
21681;SDS011;11002;48.256;10.084;2023-05-18T11:39:39;5.53;;;2.45;;
21681;SDS011;11002;48.256;10.084;2023-05-18T11:42:08;6.55;;;2.60;;
21681;SDS011;11002;48.256;10.084;2023-05-18T11:44:37;4.05;;;2.08;;
21681;SDS011;11002;48.256;10.084;2023-05-18T11:47:07;5.97;;;2.60;;
21681;SDS011;11002;48.256;10.084;2023-05-18T11:49:36;6.43;;;2.40;;
21681;SDS011;11002;48.256;10.084;2023-05-18T11:52:09;4.43;;;1.80;;
21681;SDS011;11002;48.256;10.084;2023-05-18T11:54:42;6.47;;;2.63;;
21681;SDS011;11002;48.256;10.084;2023-05-18T11:57:11;6.38;;;2.42;;
21681;SDS011;11002;48.256;10.084;2023-05-18T11:59:42;8.02;;;2.33;;
21681;SDS011;11002;48.256;10.084;2023-05-18T12:02:11;5.07;;;2.22;;
21681;SDS011;11002;48.256;10.084;2023-05-18T12:04:44;5.78;;;2.47;;
21681;SDS011;11002;48.256;10.084;2023-05-18T12:07:13;5.55;;;2.65;;
21681;SDS011;11002;48.256;10.084;2023-05-18T12:09:40;5.30;;;2.13;;
21681;SDS011;11002;48.256;10.084;2023-05-18T12:12:09;4.03;;;2.17;;
21681;SDS011;11002;48.256;10.084;2023-05-18T12:14:37;6.70;;;2.47;;
21681;SDS011;11002;48.256;10.084;2023-05-18T12:17:08;4.75;;;2.30;;
21681;SDS011;11002;48.256;10.084;2023-05-18T12:19:37;6.70;;;2.50;;
21681;SDS011;11002;48.256;10.084;2023-05-18T12:22:07;5.13;;;2.17;;
21681;SDS011;11002;48.256;10.084;2023-05-18T12:24:35;4.80;;;2.67;;
21681;SDS011;11002;48.256;10.084;2023-05-18T12:27:04;4.28;;;2.38;;
21681;SDS011;11002;48.256;10.084;2023-05-18T12:29:33;6.93;;;2.35;;
21681;SDS011;11002;48.256;10.084;2023-05-18T12:32:06;5.00;;;2.30;;
21681;SDS011;11002;48.256;10.084;2023-05-18T12:34:36;5.97;;;2.10;;
21681;SDS011;11002;48.256;10.084;2023-05-18T12:37:05;5.15;;;2.30;;
21681;SDS011;11002;48.256;10.084;2023-05-18T12:39:32;5.65;;;2.15;;
21681;SDS011;11002;48.256;10.084;2023-05-18T12:42:07;6.47;;;2.40;;
21681;SDS011;11002;48.256;10.084;2023-05-18T12:44:35;7.00;;;2.50;;
21681;SDS011;11002;48.256;10.084;2023-05-18T12:47:03;7.15;;;2.13;;
21681;SDS011;11002;48.256;10.084;2023-05-18T12:49:36;7.00;;;2.15;;
21681;SDS011;11002;48.256;10.084;2023-05-18T12:52:07;6.43;;;2.38;;
21681;SDS011;11002;48.256;10.084;2023-05-18T12:54:46;4.85;;;2.00;;
21681;SDS011;11002;48.256;10.084;2023-05-18T12:57:19;7.57;;;3.05;;
21681;SDS011;11002;48.256;10.084;2023-05-18T12:59:50;5.88;;;1.80;;
21681;SDS011;11002;48.256;10.084;2023-05-18T13:02:25;7.10;;;2.00;;
21681;SDS011;11002;48.256;10.084;2023-05-18T13:05:05;3.60;;;2.03;;
21681;SDS011;11002;48.256;10.084;2023-05-18T13:07:36;4.25;;;2.22;;
21681;SDS011;11002;48.256;10.084;2023-05-18T13:10:05;7.90;;;2.05;;
21681;SDS011;11002;48.256;10.084;2023-05-18T13:12:40;6.15;;;1.90;;
21681;SDS011;11002;48.256;10.084;2023-05-18T13:15:13;7.72;;;2.47;;
21681;SDS011;11002;48.256;10.084;2023-05-18T13:17:53;4.93;;;2.05;;
21681;SDS011;11002;48.256;10.084;2023-05-18T13:20:33;4.93;;;2.40;;
21681;SDS011;11002;48.256;10.084;2023-05-18T13:23:02;6.63;;;2.35;;
21681;SDS011;11002;48.256;10.084;2023-05-18T13:25:30;9.10;;;2.17;;
21681;SDS011;11002;48.256;10.084;2023-05-18T13:27:57;6.43;;;2.10;;
21681;SDS011;11002;48.256;10.084;2023-05-18T13:30:25;4.03;;;2.10;;
21681;SDS011;11002;48.256;10.084;2023-05-18T13:32:52;5.43;;;2.30;;
21681;SDS011;11002;48.256;10.084;2023-05-18T13:35:19;7.13;;;2.28;;
21681;SDS011;11002;48.256;10.084;2023-05-18T13:37:48;5.72;;;2.17;;
21681;SDS011;11002;48.256;10.084;2023-05-18T13:40:16;5.22;;;2.15;;
21681;SDS011;11002;48.256;10.084;2023-05-18T13:42:44;7.68;;;2.38;;
21681;SDS011;11002;48.256;10.084;2023-05-18T13:45:12;6.28;;;2.00;;
21681;SDS011;11002;48.256;10.084;2023-05-18T13:47:40;3.95;;;1.75;;
21681;SDS011;11002;48.256;10.084;2023-05-18T13:50:09;5.53;;;1.98;;
21681;SDS011;11002;48.256;10.084;2023-05-18T13:52:37;5.78;;;2.15;;
21681;SDS011;11002;48.256;10.084;2023-05-18T13:55:06;5.00;;;2.05;;
21681;SDS011;11002;48.256;10.084;2023-05-18T13:57:33;6.95;;;2.30;;
21681;SDS011;11002;48.256;10.084;2023-05-18T14:00:01;7.30;;;2.28;;
21681;SDS011;11002;48.256;10.084;2023-05-18T14:02:38;6.43;;;2.10;;
21681;SDS011;11002;48.256;10.084;2023-05-18T14:05:06;5.72;;;2.55;;
21681;SDS011;11002;48.256;10.084;2023-05-18T14:07:34;7.80;;;2.30;;
21681;SDS011;11002;48.256;10.084;2023-05-18T14:10:02;6.30;;;2.50;;
21681;SDS011;11002;48.256;10.084;2023-05-18T14:12:31;6.82;;;2.67;;
21681;SDS011;11002;48.256;10.084;2023-05-18T14:14:59;4.82;;;2.33;;
21681;SDS011;11002;48.256;10.084;2023-05-18T14:17:27;5.28;;;2.03;;
21681;SDS011;11002;48.256;10.084;2023-05-18T14:19:55;6.03;;;2.42;;
21681;SDS011;11002;48.256;10.084;2023-05-18T14:22:22;5.13;;;1.88;;
21681;SDS011;11002;48.256;10.084;2023-05-18T14:24:50;3.88;;;2.10;;
21681;SDS011;11002;48.256;10.084;2023-05-18T14:27:17;7.90;;;2.53;;
21681;SDS011;11002;48.256;10.084;2023-05-18T14:29:47;7.45;;;2.60;;
21681;SDS011;11002;48.256;10.084;2023-05-18T14:32:15;4.90;;;2.20;;
21681;SDS011;11002;48.256;10.084;2023-05-18T14:34:42;7.32;;;2.20;;
21681;SDS011;11002;48.256;10.084;2023-05-18T14:37:09;7.28;;;2.45;;
21681;SDS011;11002;48.256;10.084;2023-05-18T14:39:37;4.68;;;2.35;;
21681;SDS011;11002;48.256;10.084;2023-05-18T14:42:04;9.35;;;2.78;;
21681;SDS011;11002;48.256;10.084;2023-05-18T14:44:32;5.53;;;2.50;;
21681;SDS011;11002;48.256;10.084;2023-05-18T14:47:00;7.05;;;2.80;;
21681;SDS011;11002;48.256;10.084;2023-05-18T14:49:28;12.63;;;2.75;;